Time;durP1;ratioP1;P1;durP2;ratioP2;P2;SDS_P1;SDS_P2;PMS_P1;PMS_P2;Temp;Humidity;BMP_temperature;BMP_pressure;BME280_temperature;BME280_humidity;BME280_pressure;Samples;Min_cycle;Max_cycle;Signal;HPM_P1;HPM_P2
2022/02/10 00:26:03;;;;;;;8.00;6.23;;;5.50;82.00;;;;;;5026088;28;20482;-49
2022/02/10 00:36:23;;;;;;;6.33;4.30;;;5.40;81.90;;;;;;5029050;28;20455;-49
2022/02/10 00:38:58;;;;;;;5.77;4.03;;;5.30;81.90;;;;;;5029453;28;20469;-49
2022/02/10 00:41:25;;;;;;;4.23;3.80;;;5.30;81.90;;;;;;5029362;28;20447;-49
2022/02/10 00:43:52;;;;;;;7.73;4.50;;;5.30;81.60;;;;;;5008472;28;20463;-50
2022/02/10 00:46:19;;;;;;;6.37;4.43;;;5.20;81.50;;;;;;5029674;28;20988;-49
2022/02/10 00:48:47;;;;;;;5.73;4.57;;;5.20;81.70;;;;;;5027631;28;20478;-49
2022/02/10 00:51:14;;;;;;;7.80;3.93;;;5.20;81.60;;;;;;5027325;28;20468;-50
2022/02/10 00:53:43;;;;;;;5.30;4.20;;;5.20;81.60;;;;;;5027573;28;20463;-49
2022/02/10 00:56:10;;;;;;;6.03;4.57;;;5.20;81.70;;;;;;5023996;28;20460;-50
2022/02/10 00:58:40;;;;;;;4.80;3.63;;;5.10;81.70;;;;;;5024370;28;20490;-49
2022/02/10 01:12:26;;;;;;;4.57;4.00;;;5.00;82.00;;;;;;5028502;28;20475;-49
2022/02/10 01:31:24;;;;;;;7.33;4.27;;;5.00;82.60;;;;;;5029191;28;20548;-50
2022/02/10 01:33:50;;;;;;;6.27;3.60;;;5.00;82.40;;;;;;5029396;28;20463;-50
2022/02/10 01:36:17;;;;;;;4.63;3.90;;;5.00;82.30;;;;;;5027386;28;20462;-50
2022/02/10 01:38:44;;;;;;;5.00;3.80;;;4.90;82.50;;;;;;5029105;28;20467;-50
2022/02/10 01:41:39;;;;;;;6.50;3.90;;;4.90;82.40;;;;;;5027953;28;20967;-50
2022/02/10 02:03:22;;;;;;;5.33;4.00;;;4.70;82.40;;;;;;5025261;28;20462;-49
2022/02/10 02:06:03;;;;;;;4.53;4.07;;;4.60;82.50;;;;;;5029139;28;20475;-49
2022/02/10 02:08:32;;;;;;;4.43;3.33;;;4.60;82.10;;;;;;5029536;28;20495;-50
2022/02/10 02:11:01;;;;;;;4.70;4.20;;;4.60;81.90;;;;;;5029848;28;20531;-49
2022/02/10 02:13:28;;;;;;;3.97;3.57;;;4.60;82.00;;;;;;5025404;28;20837;-49
2022/02/10 02:15:55;;;;;;;3.93;3.53;;;4.60;82.10;;;;;;5025329;28;20831;-50
2022/02/10 02:18:22;;;;;;;6.03;3.60;;;4.50;82.30;;;;;;5030953;28;20531;-50
2022/02/10 02:20:51;;;;;;;5.33;4.13;;;4.40;82.50;;;;;;5029199;28;20471;-50
2022/02/10 02:23:20;;;;;;;4.17;3.80;;;4.40;82.50;;;;;;5029653;28;20941;-49
2022/02/10 02:25:51;;;;;;;4.17;3.77;;;4.40;82.50;;;;;;5030555;28;21374;-50
2022/02/10 02:28:18;;;;;;;5.83;3.87;;;4.40;82.50;;;;;;5029329;28;20459;-50
2022/02/10 02:30:50;;;;;;;;;;;;;;;;;;;;;
2022/02/10 03:06:14;;;;;;;6.47;3.83;;;4.20;83.10;;;;;;5035891;28;20489;-49
2022/02/10 03:08:47;;;;;;;10.00;4.80;;;4.20;83.30;;;;;;5035592;28;20455;-49
2022/02/10 03:11:16;;;;;;;7.00;3.90;;;4.10;83.30;;;;;;5036109;28;20458;-49
2022/02/10 03:13:51;;;;;;;6.23;4.13;;;4.10;83.50;;;;;;5033628;28;20811;-50
2022/02/10 03:18:58;;;;;;;6.97;5.07;;;4.00;83.60;;;;;;5035629;28;20463;-48
2022/02/10 04:01:07;;;;;;;4.37;4.00;;;3.90;83.30;;;;;;5044513;28;20456;-49
2022/02/10 04:03:33;;;;;;;12.40;4.23;;;3.90;83.20;;;;;;5043153;28;20455;-49
2022/02/10 04:09:10;;;;;;;4.57;4.10;;;3.80;83.50;;;;;;5044893;28;20555;-49
2022/02/10 04:16:36;;;;;;;8.10;5.83;;;3.80;83.70;;;;;;5044411;28;20474;-48
2022/02/10 04:25:04;;;;;;;6.00;4.37;;;3.90;83.30;;;;;;5006160;28;20526;-49
2022/02/10 04:28:15;;;;;;;4.57;4.17;;;3.90;83.60;;;;;;5040948;28;20500;-48
2022/02/10 04:38:52;;;;;;;7.17;5.27;;;3.80;83.40;;;;;;5044767;28;21150;-48
2022/02/10 04:44:29;;;;;;;6.77;4.80;;;3.80;83.10;;;;;;5046035;28;20470;-48
2022/02/10 05:06:14;;;;;;;10.43;6.70;;;3.70;82.70;;;;;;5045725;28;20524;-48
2022/02/10 05:14:54;;;;;;;7.97;4.40;;;3.70;82.60;;;;;;5044266;28;20535;-48
2022/02/10 05:17:10;;;;;;;11.90;5.37;;;3.60;82.60;;;;;;5043807;28;20455;-48
2022/02/10 05:35:50;;;;;;;8.97;5.27;;;3.60;83.70;;;;;;5044492;28;20455;-48
2022/02/10 05:38:25;;;;;;;9.13;5.37;;;3.50;83.70;;;;;;5038852;28;20451;-48
2022/02/10 05:43:53;;;;;;;7.00;4.63;;;3.60;83.50;;;;;;5042109;28;20467;-48
2022/02/10 05:56:55;;;;;;;9.43;6.40;;;3.40;84.00;;;;;;5044829;28;20459;-48
2022/02/10 06:54:38;;;;;;;;;;;;;;;;;;;;;
2022/02/10 07:56:25;;;;;;;13.20;8.13;;;5.00;85.20;;;;;;5018538;28;20459;-49
2022/02/10 09:15:26;;;;;;;12.57;9.97;;;6.90;85.70;;;;;;5025903;28;20471;-49
2022/02/10 09:56:25;;;;;;;12.10;8.70;;;8.00;82.00;;;;;;5031565;28;20470;-48
2022/02/10 09:59:11;;;;;;;9.40;7.77;;;8.00;82.10;;;;;;5019794;28;20463;-48
2022/02/10 10:01:45;;;;;;;11.40;8.53;;;8.00;81.90;;;;;;5034296;28;20462;-49
2022/02/10 10:04:20;;;;;;;12.50;9.13;;;8.10;81.80;;;;;;5032230;28;20455;-48
2022/02/10 10:07:00;;;;;;;8.40;7.70;;;8.10;81.80;;;;;;5031805;28;20458;-49
2022/02/10 10:21:16;;;;;;;12.57;8.23;;;8.20;82.10;;;;;;5034230;28;20462;-48
2022/02/10 10:24:08;;;;;;;9.97;7.83;;;8.20;82.10;;;;;;5030617;28;20811;-48
2022/02/10 10:57:23;;;;;;;7.97;6.80;;;8.30;82.70;;;;;;5003590;28;20451;-49
2022/02/10 11:37:27;;;;;;;7.90;5.50;;;8.60;81.80;;;;;;4937505;28;20955;-49
2022/02/10 11:40:19;;;;;;;5.77;5.20;;;8.60;81.80;;;;;;5020084;28;20467;-49
2022/02/10 11:43:31;;;;;;;5.60;5.10;;;8.60;82.00;;;;;;5029822;28;22191;-49
2022/02/10 14:11:25;;;;;;;6.20;5.60;;;9.80;76.50;;;;;;5024722;28;20463;-49
2022/02/10 14:13:46;;;;;;;7.50;4.70;;;9.80;76.60;;;;;;5026115;28;20459;-49
2022/02/10 14:16:38;;;;;;;6.67;4.57;;;9.90;75.90;;;;;;5020143;28;20473;-49
2022/02/10 14:19:13;;;;;;;7.43;5.10;;;9.90;76.20;;;;;;5024217;28;20550;-49
2022/02/10 14:21:48;;;;;;;7.83;5.50;;;10.00;75.30;;;;;;5024214;28;20850;-49
2022/02/10 14:27:01;;;;;;;6.30;4.83;;;10.10;75.30;;;;;;5027464;28;20486;-49
2022/02/10 14:29:29;;;;;;;6.80;5.07;;;10.10;75.10;;;;;;5026329;28;20495;-48
2022/02/10 14:31:56;;;;;;;5.33;4.83;;;10.10;74.80;;;;;;5010389;28;20470;-49
2022/02/10 14:34:26;;;;;;;5.70;4.80;;;10.00;74.70;;;;;;5026244;28;20483;-49
2022/02/10 14:37:12;;;;;;;5.80;4.70;;;10.00;74.80;;;;;;5011327;28;20491;-49
2022/02/10 16:17:55;;;;;;;10.20;7.17;;;9.30;77.40;;;;;;5027336;28;20447;-46
2022/02/10 16:20:28;;;;;;;8.93;6.73;;;9.20;77.30;;;;;;5027377;28;20475;-46
2022/02/10 16:23:02;;;;;;;;;;;;;;;;;;;;;
2022/02/10 16:25:33;;;;;;;11.73;7.37;;;9.20;77.60;;;;;;5029993;28;20463;-46
2022/02/10 16:28:30;;;;;;;11.93;7.30;;;9.20;77.60;;;;;;5025189;28;20455;-47
2022/02/10 16:30:59;;;;;;;10.93;8.37;;;9.10;77.20;;;;;;5022433;28;21007;-46
2022/02/10 16:33:32;;;;;;;10.23;8.03;;;9.10;77.10;;;;;;5026562;28;20880;-46
2022/02/10 16:36:05;;;;;;;14.40;9.00;;;9.10;77.40;;;;;;5023050;28;20494;-47
2022/02/10 16:38:37;;;;;;;14.30;8.90;;;9.10;77.90;;;;;;5010894;28;20554;-47
2022/02/10 16:41:09;;;;;;;17.13;10.33;;;9.00;78.30;;;;;;5026497;28;20551;-47
2022/02/10 16:43:42;;;;;;;16.80;10.23;;;9.00;78.10;;;;;;5026112;28;20863;-47
2022/02/10 16:46:14;;;;;;;14.20;10.13;;;9.00;78.20;;;;;;5026470;28;20511;-46
2022/02/10 16:48:46;;;;;;;12.70;9.70;;;8.90;78.50;;;;;;5008408;28;20466;-47
2022/02/10 16:51:19;;;;;;;16.70;9.20;;;8.90;78.90;;;;;;5025152;28;20539;-47
2022/02/10 16:53:57;;;;;;;16.07;9.63;;;8.90;79.00;;;;;;5010758;28;20440;-47
2022/02/10 16:56:36;;;;;;;12.67;10.00;;;8.90;79.10;;;;;;5024479;28;20459;-47
2022/02/10 16:59:31;;;;;;;11.57;8.27;;;8.90;79.20;;;;;;5026898;28;20551;-47
2022/02/10 17:05:17;;;;;;;8.90;7.63;;;8.80;79.30;;;;;;5025235;28;20485;-46
2022/02/10 17:19:16;;;;;;;7.60;6.27;;;8.70;78.60;;;;;;5023487;28;20917;-46
2022/02/10 17:46:40;;;;;;;9.73;7.47;;;8.50;78.70;;;;;;5023554;28;20483;-47
2022/02/10 17:54:24;;;;;;;10.17;6.67;;;8.50;78.90;;;;;;5029656;28;20469;-49
2022/02/10 17:56:51;;;;;;;9.47;7.50;;;8.50;78.90;;;;;;5010740;28;20833;-46
2022/02/10 17:59:21;;;;;;;9.47;7.20;;;8.50;79.10;;;;;;5012766;28;20474;-50
2022/02/10 18:01:49;;;;;;;8.20;7.10;;;8.50;78.80;;;;;;5029541;28;20562;-49
2022/02/10 18:04:17;;;;;;;9.70;6.80;;;8.50;78.80;;;;;;5032600;28;20459;-49
2022/02/10 18:06:47;;;;;;;10.97;7.30;;;8.50;79.00;;;;;;5031873;28;20459;-49
2022/02/10 18:14:58;;;;;;;8.70;6.53;;;8.40;79.60;;;;;;5042334;28;20507;-48
2022/02/10 18:17:44;;;;;;;10.90;7.50;;;8.40;79.20;;;;;;5037782;28;20466;-48
2022/02/10 18:20:14;;;;;;;11.57;8.07;;;8.40;79.40;;;;;;5047130;28;20503;-48
2022/02/10 18:22:53;;;;;;;10.50;7.87;;;8.40;79.40;;;;;;5032431;28;20459;-49
2022/02/10 18:26:06;;;;;;;9.27;7.20;;;8.40;79.60;;;;;;5039705;28;20471;-48
2022/02/10 18:28:37;;;;;;;9.13;6.50;;;8.50;79.40;;;;;;5050099;28;20439;-48
2022/02/10 19:09:26;;;;;;;9.83;6.60;;;8.30;80.00;;;;;;5024215;28;20871;-45
2022/02/10 19:12:00;;;;;;;10.73;7.20;;;8.40;79.80;;;;;;5028581;28;20463;-46
2022/02/10 19:14:27;;;;;;;11.30;7.17;;;8.40;79.70;;;;;;5030777;28;20455;-45
2022/02/10 19:16:54;;;;;;;11.83;8.50;;;8.40;79.70;;;;;;5029892;28;20864;-45
2022/02/10 19:19:21;;;;;;;10.47;7.67;;;8.40;79.80;;;;;;5016765;28;20880;-46
2022/02/10 19:21:48;;;;;;;12.63;7.80;;;8.40;79.90;;;;;;5030899;28;20823;-46
2022/02/10 19:24:17;;;;;;;15.60;9.33;;;8.40;80.00;;;;;;5030280;28;20474;-47
2022/02/10 19:26:50;;;;;;;10.80;8.90;;;8.40;80.00;;;;;;5027252;28;20970;-47
2022/02/10 19:29:21;;;;;;;10.57;8.47;;;8.40;80.20;;;;;;5029832;28;20994;-47
2022/02/10 19:31:50;;;;;;;11.07;8.60;;;8.40;79.80;;;;;;5028722;28;20455;-47
2022/02/10 19:34:17;;;;;;;14.40;10.10;;;8.40;79.90;;;;;;5027493;28;20590;-46
2022/02/10 19:37:04;;;;;;;10.77;8.77;;;8.30;80.10;;;;;;5040613;28;21757;-49
2022/02/10 19:39:32;;;;;;;13.07;10.43;;;8.30;80.10;;;;;;5048587;28;20463;-49
2022/02/10 19:41:59;;;;;;;12.10;10.33;;;8.30;80.10;;;;;;5037729;28;20546;-49
2022/02/10 19:44:26;;;;;;;16.80;10.37;;;8.30;80.20;;;;;;5046825;28;20884;-49
2022/02/10 19:46:57;;;;;;;12.53;9.90;;;8.30;79.80;;;;;;5044440;28;20503;-49
2022/02/10 19:49:25;;;;;;;15.47;10.93;;;8.30;80.00;;;;;;5046509;28;20483;-48
2022/02/10 19:51:52;;;;;;;12.90;10.27;;;8.30;80.00;;;;;;5048712;28;20459;-48
2022/02/10 19:54:25;;;;;;;12.80;10.60;;;8.30;80.30;;;;;;5031818;28;20531;-48
2022/02/10 19:56:54;;;;;;;12.50;9.90;;;8.30;80.20;;;;;;5032461;28;20551;-47
2022/02/10 19:59:27;;;;;;;15.00;9.77;;;8.20;80.20;;;;;;5027058;28;20464;-47
2022/02/10 20:01:54;;;;;;;16.40;10.37;;;8.20;80.20;;;;;;5046402;28;20459;-48
2022/02/10 20:04:23;;;;;;;15.83;10.50;;;8.20;80.30;;;;;;5049922;28;20987;-48
2022/02/10 20:06:51;;;;;;;14.13;10.97;;;8.20;80.10;;;;;;5047996;28;20478;-48
2022/02/10 20:09:18;;;;;;;11.60;10.33;;;8.20;80.00;;;;;;5038037;28;20459;-48
2022/02/10 20:11:51;;;;;;;15.20;9.80;;;8.20;80.30;;;;;;5050905;28;20483;-48
2022/02/10 20:14:22;;;;;;;14.73;11.00;;;8.20;80.10;;;;;;5047869;28;20527;-48
2022/02/10 20:16:52;;;;;;;13.77;10.30;;;8.20;79.90;;;;;;5049040;28;20459;-48
2022/02/10 20:19:19;;;;;;;13.90;10.63;;;8.20;79.90;;;;;;5047246;28;20463;-49
2022/02/10 20:21:46;;;;;;;16.00;10.80;;;8.20;79.90;;;;;;5047228;28;20519;-48
2022/02/10 20:24:13;;;;;;;14.63;10.80;;;8.20;80.20;;;;;;5047863;28;20461;-48
2022/02/10 20:26:41;;;;;;;15.90;10.50;;;8.20;80.00;;;;;;5037322;28;20572;-48
2022/02/10 20:29:10;;;;;;;21.50;11.83;;;8.20;80.00;;;;;;5045797;28;20953;-48
2022/02/10 20:31:39;;;;;;;15.60;11.30;;;8.20;80.10;;;;;;5045626;28;20479;-48
2022/02/10 20:34:07;;;;;;;15.10;10.90;;;8.20;80.20;;;;;;5047967;28;20483;-47
2022/02/10 20:36:37;;;;;;;15.63;11.30;;;8.20;80.00;;;;;;5049026;28;21022;-48
2022/02/10 20:39:05;;;;;;;14.60;11.40;;;8.20;80.00;;;;;;5047849;28;20948;-48
2022/02/10 20:41:35;;;;;;;14.27;12.17;;;8.20;80.20;;;;;;5035435;28;20520;-48
2022/02/10 20:44:03;;;;;;;15.70;11.23;;;8.20;80.20;;;;;;5048626;28;20459;-49
2022/02/10 20:46:32;;;;;;;16.20;10.67;;;8.20;80.30;;;;;;5046409;28;20505;-48
2022/02/10 20:49:02;;;;;;;13.70;10.30;;;8.20;80.20;;;;;;5043434;28;20561;-48
2022/02/10 20:51:28;;;;;;;13.30;10.57;;;8.20;80.10;;;;;;5046642;28;20622;-48
2022/02/10 20:53:55;;;;;;;13.10;11.23;;;8.20;80.40;;;;;;5030976;28;20523;-48
2022/02/10 20:56:22;;;;;;;16.63;10.80;;;8.20;80.40;;;;;;5030675;28;20455;-48
2022/02/10 20:58:58;;;;;;;16.20;10.90;;;8.20;80.30;;;;;;5038909;28;20858;-48
2022/02/10 21:01:25;;;;;;;13.70;10.67;;;8.20;80.60;;;;;;5047057;28;20531;-48
2022/02/10 21:03:53;;;;;;;13.60;11.30;;;8.10;81.10;;;;;;5047194;28;20471;-48
2022/02/10 21:09:05;;;;;;;13.37;9.13;;;8.10;81.30;;;;;;5047767;28;20467;-47
2022/02/10 21:11:32;;;;;;;12.27;10.13;;;8.10;81.30;;;;;;5046453;28;20603;-48
2022/02/10 21:14:02;;;;;;;12.47;9.93;;;8.10;81.40;;;;;;5046551;28;20527;-48
2022/02/10 21:16:29;;;;;;;13.83;11.20;;;8.10;81.50;;;;;;5045765;28;20455;-48
2022/02/10 21:18:56;;;;;;;16.57;11.73;;;8.10;82.00;;;;;;5029193;28;20543;-48
2022/02/10 21:21:26;;;;;;;20.40;12.07;;;8.10;82.10;;;;;;5028890;28;20453;-48
2022/02/10 21:23:58;;;;;;;15.67;10.03;;;8.00;82.40;;;;;;5050932;28;20546;-48
2022/02/10 21:26:31;;;;;;;16.50;10.87;;;8.00;82.70;;;;;;5046810;28;20455;-48
2022/02/10 21:29:01;;;;;;;17.63;11.53;;;8.00;82.50;;;;;;5046742;28;20730;-48
2022/02/10 21:31:28;;;;;;;14.90;11.37;;;8.10;82.40;;;;;;5046047;28;20483;-48
2022/02/10 21:36:56;;;;;;;14.50;11.70;;;8.10;82.60;;;;;;5046320;28;20530;-48
2022/02/10 21:43:31;;;;;;;12.97;10.53;;;8.00;83.30;;;;;;5043708;28;20738;-47
2022/02/10 21:47:54;;;;;;;17.10;11.00;;;8.00;83.80;;;;;;5040676;28;20514;-48
2022/02/10 21:53:33;;;;;;;14.07;9.57;;;8.00;83.70;;;;;;5028164;28;20489;-48
2022/02/10 22:11:46;;;;;;;19.47;11.27;;;7.90;85.30;;;;;;5040175;28;20514;-49
2022/02/10 22:19:34;;;;;;;13.50;9.77;;;7.90;85.10;;;;;;5047924;28;20450;-48
2022/02/10 22:22:09;;;;;;;13.80;10.60;;;7.90;85.20;;;;;;5047986;28;20497;-48
2022/02/10 22:24:35;;;;;;;17.17;11.20;;;7.90;85.50;;;;;;5031253;28;20471;-49
2022/02/10 22:27:02;;;;;;;15.03;9.57;;;7.90;85.50;;;;;;5048156;28;20467;-49
2022/02/10 22:29:42;;;;;;;14.13;10.20;;;7.80;85.80;;;;;;5043686;28;20451;-48
2022/02/10 22:34:41;;;;;;;13.43;8.87;;;7.80;86.00;;;;;;5036506;28;21000;-48
2022/02/10 22:37:10;;;;;;;11.63;9.07;;;7.80;86.00;;;;;;5041221;28;20593;-49
2022/02/10 22:39:43;;;;;;;9.67;8.23;;;7.80;86.00;;;;;;5020342;28;20562;-49
2022/02/10 22:42:10;;;;;;;11.20;9.00;;;7.80;85.70;;;;;;5035860;28;20464;-49
2022/02/10 22:44:38;;;;;;;12.60;8.40;;;7.80;86.00;;;;;;5038869;28;20913;-49
2022/02/10 22:47:07;;;;;;;15.20;10.40;;;7.80;86.20;;;;;;5039210;28;20507;-50
2022/02/10 22:49:34;;;;;;;13.77;10.00;;;7.80;86.20;;;;;;5038200;28;20495;-48
2022/02/10 22:52:02;;;;;;;11.90;9.27;;;7.80;86.20;;;;;;5022639;28;20486;-50
2022/02/10 22:54:29;;;;;;;12.10;8.67;;;7.70;86.70;;;;;;5040649;28;20465;-48
2022/02/10 22:56:56;;;;;;;10.00;8.03;;;7.70;86.80;;;;;;5038734;28;20464;-49
2022/02/10 22:59:22;;;;;;;10.07;7.30;;;7.70;87.00;;;;;;5023782;28;20456;-50
2022/02/10 23:01:49;;;;;;;12.37;9.17;;;7.60;87.00;;;;;;5041536;28;20477;-49
2022/02/10 23:04:16;;;;;;;11.03;8.57;;;7.60;87.10;;;;;;5045251;28;20861;-50
2022/02/10 23:06:43;;;;;;;15.23;9.03;;;7.60;87.00;;;;;;5031100;28;20465;-49
2022/02/10 23:09:26;;;;;;;11.40;8.00;;;7.60;86.90;;;;;;5045499;28;20460;-49
2022/02/10 23:11:54;;;;;;;13.53;7.77;;;7.60;87.00;;;;;;5046927;28;20579;-49
2022/02/10 23:14:23;;;;;;;12.67;7.50;;;7.60;87.00;;;;;;5046568;28;20476;-49
2022/02/10 23:16:50;;;;;;;10.73;7.70;;;7.60;87.00;;;;;;5044745;28;20458;-49
2022/02/10 23:19:17;;;;;;;7.30;6.40;;;7.60;87.10;;;;;;5030864;28;20459;-49
2022/02/10 23:21:44;;;;;;;10.23;7.77;;;7.60;87.00;;;;;;5037907;28;20518;-49
2022/02/10 23:24:11;;;;;;;12.33;8.17;;;7.50;87.20;;;;;;5044172;28;20459;-49
2022/02/10 23:26:37;;;;;;;12.03;7.63;;;7.50;87.40;;;;;;5046062;28;20843;-49
2022/02/10 23:29:04;;;;;;;13.23;8.10;;;7.50;87.30;;;;;;5028068;28;20459;-49
2022/02/10 23:31:31;;;;;;;8.73;6.77;;;7.60;87.30;;;;;;5042792;28;20772;-49
2022/02/10 23:34:01;;;;;;;8.00;6.50;;;7.60;87.40;;;;;;5044721;28;20722;-49
2022/02/10 23:36:46;;;;;;;10.13;7.73;;;7.60;87.30;;;;;;5031359;28;20486;-48
2022/02/10 23:39:33;;;;;;;6.33;5.67;;;7.50;87.50;;;;;;5045707;28;20515;-49
2022/02/10 23:42:08;;;;;;;;;;;;;;;;;;;;;
2022/02/10 23:44:41;;;;;;;5.87;5.10;;;7.50;87.60;;;;;;5038393;28;20475;-49
2022/02/10 23:47:09;;;;;;;6.93;5.47;;;7.50;87.50;;;;;;5045788;28;20495;-49
2022/02/10 23:49:38;;;;;;;6.00;4.83;;;7.60;87.40;;;;;;5046801;28;20499;-49
2022/02/10 23:52:08;;;;;;;4.43;3.30;;;7.60;87.30;;;;;;5044273;28;21047;-49
2022/02/10 23:54:41;;;;;;;2.80;2.30;;;7.50;87.20;;;;;;5030575;28;20458;-49
